Terminal Aerodrome Forecast
Issued by NWS Birmingham, AL

Home | Current Version | Previous Version | Text Only | Print | Product List | Glossary On
Versions: 1 2 3 4 5 6 7 8 9 10 11 12 13 14 15 16 17 18
000
FTUS44 KBMX 231131
TAFBHM
TAF
KBHM 231131Z 2312/2412 17011G18KT P6SM BKN015 OVC025
     FM231700 20015G22KT P6SM OVC040
     FM232000 21015G22KT 4SM SHRA BKN035 PROB30 2321/2323 2SM TSRA
      BKN025CB
     FM240000 22015KT P6SM BKN035
     FM240600 23007KT 6SM SHRA BKN007=

USA.gov is the U.S. government's official web portal to all federal, state and local government web resources and services.